Time,TemperatureF,DewpointF,PressureIn,WindDirection,WindDirectionDegrees,WindSpeedMPH,WindSpeedGustMPH,Humidity,HourlyPrecipIn,Conditions,Clouds,dailyrainin,SoftwareType,DateUTC
2013-01-09 00:01:00,27.0,21.9,30.26,NW,315,0.0,0.0,81,0.00,CLR,,0.00,WeatherDisplay:10.37,2013-01-09 05:01:00,
2013-01-09 00:03:00,27.0,21.9,30.26,NNW,338,0.0,0.0,81,0.00,CLR,,0.00,WeatherDisplay:10.37,2013-01-09 05:03:00,
2013-01-09 00:08:00,27.0,22.2,30.26,NW,315,0.0,0.0,82,0.00,CLR,,0.00,WeatherDisplay:10.37,2013-01-09 05:08:00,
2013-01-09 00:13:00,27.0,22.2,30.27,NW,315,0.0,0.0,82,0.00,CLR,,0.00,WeatherDisplay:10.37,2013-01-09 05:13:00,
2013-01-09 00:18:00,26.8,22.0,30.27,NNW,338,0.0,0.0,82,0.00,CLR,,0.00,WeatherDisplay:10.37,2013-01-09 05:18:00,
2013-01-09 00:23:00,26.8,22.0,30.27,NNW,338,0.0,0.0,82,0.00,CLR,,0.00,WeatherDisplay:10.37,2013-01-09 05:23:00,
2013-01-09 00:28:00,26.6,21.8,30.27,NW,315,0.0,0.0,82,0.00,CLR,,0.00,WeatherDisplay:10.37,2013-01-09 05:28:00,
2013-01-09 00:33:00,26.6,21.8,30.27,NW,315,0.0,0.0,82,0.00,CLR,,0.00,WeatherDisplay:10.37,2013-01-09 05:33:00,
2013-01-09 00:38:00,26.6,22.1,30.28,NW,315,0.0,0.0,83,0.00,CLR,,0.00,WeatherDisplay:10.37,2013-01-09 05:38:00,
2013-01-09 00:43:00,26.6,22.1,30.28,NNW,338,0.0,0.0,83,0.00,CLR,,0.00,WeatherDisplay:10.37,2013-01-09 05:43:00,
2013-01-09 00:48:00,26.6,22.1,30.28,West,270,0.0,0.0,83,0.00,CLR,,0.00,WeatherDisplay:10.37,2013-01-09 05:48:00,
2013-01-09 00:53:00,26.4,21.9,30.27,ENE,68,0.0,0.0,83,0.00,CLR,,0.00,WeatherDisplay:10.37,2013-01-09 05:53:00,
2013-01-09 00:58:00,26.1,21.6,30.27,NNE,22,0.0,0.0,83,0.00,CLR,,0.00,WeatherDisplay:10.37,2013-01-09 05:58:00,
2013-01-09 01:03:00,26.1,21.6,30.27,West,270,0.0,0.0,83,0.00,CLR,,0.00,WeatherDisplay:10.37,2013-01-09 06:03:00,
2013-01-09 01:08:00,25.7,21.3,30.27,NNW,338,0.0,0.0,83,0.00,CLR,,0.00,WeatherDisplay:10.37,2013-01-09 06:08:00,
2013-01-09 01:13:00,25.5,21.1,30.27,WNW,292,0.0,0.0,83,0.00,CLR,,0.00,WeatherDisplay:10.37,2013-01-09 06:13:00,
2013-01-09 01:18:00,25.5,21.3,30.27,NW,315,0.0,0.0,84,0.00,CLR,,0.00,WeatherDisplay:10.37,2013-01-09 06:18:00,
2013-01-09 01:23:00,25.5,21.3,30.27,North,360,0.0,0.0,84,0.00,CLR,,0.00,WeatherDisplay:10.37,2013-01-09 06:23:00,
2013-01-09 01:29:00,25.5,21.3,30.27,NNW,338,0.0,0.0,84,0.00,CLR,,0.00,WeatherDisplay:10.37,2013-01-09 06:29:00,
2013-01-09 01:33:00,25.5,21.6,30.27,NW,315,0.0,0.0,85,0.00,CLR,,0.00,WeatherDisplay:10.37,2013-01-09 06:33:00,
2013-01-09 01:39:00,25.2,21.3,30.27,NW,315,0.0,0.0,85,0.00,CLR,,0.00,WeatherDisplay:10.37,2013-01-09 06:39:00,
2013-01-09 01:44:00,25.2,21.3,30.27,WNW,292,0.0,0.0,85,0.00,CLR,,0.00,WeatherDisplay:10.37,2013-01-09 06:44:00,
2013-01-09 01:49:00,25.3,21.4,30.27,NNE,22,0.0,0.0,85,0.00,CLR,,0.00,WeatherDisplay:10.37,2013-01-09 06:49:00,
2013-01-09 01:54:00,25.3,21.4,30.27,WNW,292,0.0,0.0,85,0.00,CLR,,0.00,WeatherDisplay:10.37,2013-01-09 06:54:00,
2013-01-09 01:59:00,25.3,21.4,30.27,NE,45,0.0,0.0,85,0.00,CLR,,0.00,WeatherDisplay:10.37,2013-01-09 06:59:00,
2013-01-09 02:04:00,25.5,21.6,30.27,NW,315,0.0,0.0,85,0.00,CLR,,0.00,WeatherDisplay:10.37,2013-01-09 07:04:00,
2013-01-09 02:09:00,25.5,21.6,30.27,North,360,0.0,0.0,85,0.00,CLR,,0.00,WeatherDisplay:10.37,2013-01-09 07:09:00,
2013-01-09 02:14:00,25.3,21.4,30.27,NNW,338,0.0,0.0,85,0.00,CLR,,0.00,WeatherDisplay:10.37,2013-01-09 07:14:00,
2013-01-09 02:19:00,25.3,21.4,30.27,NW,315,0.0,0.0,85,0.00,CLR,,0.00,WeatherDisplay:10.37,2013-01-09 07:19:00,
2013-01-09 02:24:00,25.3,21.4,30.27,SW,225,0.0,0.0,85,0.00,CLR,,0.00,WeatherDisplay:10.37,2013-01-09 07:24:00,
2013-01-09 02:29:00,25.3,21.4,30.27,ENE,68,0.0,0.0,85,0.00,CLR,,0.00,WeatherDisplay:10.37,2013-01-09 07:29:00,
2013-01-09 02:34:00,25.2,21.3,30.27,NNW,338,0.0,0.0,85,0.00,CLR,,0.00,WeatherDisplay:10.37,2013-01-09 07:34:00,
2013-01-09 02:39:00,25.2,21.3,30.27,NW,315,0.0,0.0,85,0.00,CLR,,0.00,WeatherDisplay:10.37,2013-01-09 07:39:00,
2013-01-09 02:44:00,25.2,21.3,30.27,NNW,338,0.0,0.0,85,0.00,CLR,,0.00,WeatherDisplay:10.37,2013-01-09 07:44:00,
2013-01-09 02:49:00,25.2,21.6,30.27,NNW,338,0.0,0.0,86,0.00,CLR,,0.00,WeatherDisplay:10.37,2013-01-09 07:49:00,
2013-01-09 02:54:00,25.2,21.6,30.27,NW,315,0.0,0.0,86,0.00,CLR,,0.00,WeatherDisplay:10.37,2013-01-09 07:54:00,
2013-01-09 02:59:00,25.0,21.4,30.27,North,360,0.0,0.0,86,0.00,CLR,,0.00,WeatherDisplay:10.37,2013-01-09 07:59:00,
2013-01-09 03:04:00,24.8,21.2,30.26,WNW,292,0.0,0.0,86,0.00,CLR,,0.00,WeatherDisplay:10.37,2013-01-09 08:04:00,
2013-01-09 03:09:00,24.8,21.2,30.26,North,360,0.0,0.0,86,0.00,CLR,,0.00,WeatherDisplay:10.37,2013-01-09 08:09:00,
2013-01-09 03:14:00,24.4,20.8,30.27,NW,315,0.0,0.0,86,0.00,CLR,,0.00,WeatherDisplay:10.37,2013-01-09 08:14:00,
2013-01-09 03:19:00,24.3,20.7,30.27,NNW,338,0.0,0.0,86,0.00,CLR,,0.00,WeatherDisplay:10.37,2013-01-09 08:19:00,
2013-01-09 03:24:00,24.1,20.5,30.27,NNW,338,0.0,0.0,86,0.00,CLR,,0.00,WeatherDisplay:10.37,2013-01-09 08:24:00,
2013-01-09 03:29:00,23.9,20.3,30.27,WNW,292,0.0,0.0,86,0.00,CLR,,0.00,WeatherDisplay:10.37,2013-01-09 08:29:00,
2013-01-09 03:34:00,23.9,20.3,30.27,NNE,22,0.0,0.0,86,0.00,CLR,,0.00,WeatherDisplay:10.37,2013-01-09 08:34:00,
2013-01-09 03:39:00,23.9,20.3,30.26,WNW,292,0.0,0.0,86,0.00,CLR,,0.00,WeatherDisplay:10.37,2013-01-09 08:39:00,
2013-01-09 03:44:00,23.9,20.6,30.26,NE,45,0.0,0.0,87,0.00,CLR,,0.00,WeatherDisplay:10.37,2013-01-09 08:44:00,
2013-01-09 03:49:00,23.9,20.6,30.26,NNW,338,0.0,0.0,87,0.00,CLR,,0.00,WeatherDisplay:10.37,2013-01-09 08:49:00,
2013-01-09 03:54:00,23.9,20.6,30.26,West,270,0.0,0.0,87,0.00,CLR,,0.00,WeatherDisplay:10.37,2013-01-09 08:54:00,
2013-01-09 03:59:00,23.9,20.6,30.26,NW,315,0.0,0.0,87,0.00,CLR,,0.00,WeatherDisplay:10.37,2013-01-09 08:59:00,
2013-01-09 04:04:00,23.9,20.6,30.27,NW,315,0.0,0.0,87,0.00,CLR,,0.00,WeatherDisplay:10.37,2013-01-09 09:04:00,
2013-01-09 04:09:00,23.7,20.4,30.27,WNW,292,0.0,0.0,87,0.00,CLR,,0.00,WeatherDisplay:10.37,2013-01-09 09:09:00,
2013-01-09 04:14:00,23.4,20.1,30.26,NNW,338,0.0,0.0,87,0.00,CLR,,0.00,WeatherDisplay:10.37,2013-01-09 09:14:00,
2013-01-09 04:19:00,23.4,20.1,30.26,WNW,292,0.0,0.0,87,0.00,CLR,,0.00,WeatherDisplay:10.37,2013-01-09 09:19:00,
2013-01-09 04:24:00,23.2,19.9,30.26,NW,315,0.0,0.0,87,0.00,CLR,,0.00,WeatherDisplay:10.37,2013-01-09 09:24:00,
2013-01-09 04:29:00,23.2,19.9,30.26,NW,315,0.0,0.0,87,0.00,CLR,,0.00,WeatherDisplay:10.37,2013-01-09 09:29:00,
2013-01-09 04:34:00,23.2,20.2,30.26,WNW,292,0.0,0.0,88,0.00,CLR,,0.00,WeatherDisplay:10.37,2013-01-09 09:34:00,
2013-01-09 04:39:00,23.0,20.0,30.26,NNE,22,0.0,0.0,88,0.00,CLR,,0.00,WeatherDisplay:10.37,2013-01-09 09:39:00,
2013-01-09 04:44:00,22.6,19.6,30.26,ENE,68,0.0,0.0,88,0.00,CLR,,0.00,WeatherDisplay:10.37,2013-01-09 09:44:00,
2013-01-09 04:49:00,22.5,19.5,30.25,WNW,292,0.0,0.0,88,0.00,CLR,,0.00,WeatherDisplay:10.37,2013-01-09 09:49:00,
2013-01-09 04:54:00,22.6,19.6,30.25,NW,315,0.0,0.0,88,0.00,CLR,,0.00,WeatherDisplay:10.37,2013-01-09 09:54:00,
2013-01-09 04:59:00,22.6,19.6,30.25,NNW,338,0.0,0.0,88,0.00,CLR,,0.00,WeatherDisplay:10.37,2013-01-09 09:59:00,
2013-01-09 05:04:00,22.6,19.6,30.27,NW,315,0.0,0.0,88,0.00,CLR,,0.00,WeatherDisplay:10.37,2013-01-09 10:04:00,
2013-01-09 05:09:00,22.5,19.5,30.27,NNW,338,0.0,0.0,88,0.00,CLR,,0.00,WeatherDisplay:10.37,2013-01-09 10:09:00,
2013-01-09 05:14:00,22.3,19.3,30.27,North,360,0.0,0.0,88,0.00,CLR,,0.00,WeatherDisplay:10.37,2013-01-09 10:14:00,
2013-01-09 05:19:00,21.9,18.9,30.27,NNW,338,0.0,0.0,88,0.00,CLR,,0.00,WeatherDisplay:10.37,2013-01-09 10:19:00,
2013-01-09 05:24:00,21.7,18.7,30.27,NW,315,0.0,0.0,88,0.00,CLR,,0.00,WeatherDisplay:10.37,2013-01-09 10:24:00,
2013-01-09 05:29:00,21.7,18.7,30.27,South,180,0.0,0.0,88,0.00,CLR,,0.00,WeatherDisplay:10.37,2013-01-09 10:29:00,
2013-01-09 05:34:00,21.6,18.6,30.27,ESE,112,0.0,0.0,88,0.00,CLR,,0.00,WeatherDisplay:10.37,2013-01-09 10:34:00,
2013-01-09 05:39:00,21.4,18.4,30.26,NW,315,0.0,0.0,88,0.00,CLR,,0.00,WeatherDisplay:10.37,2013-01-09 10:39:00,
2013-01-09 05:44:00,21.6,18.6,30.26,West,270,0.0,0.0,88,0.00,CLR,,0.00,WeatherDisplay:10.37,2013-01-09 10:44:00,
2013-01-09 05:49:00,21.7,19.0,30.27,NNW,338,0.0,0.0,89,0.00,CLR,,0.00,WeatherDisplay:10.37,2013-01-09 10:49:00,
2013-01-09 05:54:00,21.4,18.7,30.27,WNW,292,0.0,0.0,89,0.00,CLR,,0.00,WeatherDisplay:10.37,2013-01-09 10:54:00,
2013-01-09 05:59:00,21.4,18.7,30.27,SW,225,0.0,0.0,89,0.00,CLR,,0.00,WeatherDisplay:10.37,2013-01-09 10:59:00,
2013-01-09 06:04:00,21.4,18.7,30.27,West,270,0.0,0.0,89,0.00,CLR,,0.00,WeatherDisplay:10.37,2013-01-09 11:04:00,
2013-01-09 06:09:00,21.4,18.7,30.27,NNW,338,0.0,0.0,89,0.00,CLR,,0.00,WeatherDisplay:10.37,2013-01-09 11:09:00,
2013-01-09 06:14:00,21.2,18.5,30.28,NW,315,0.0,0.0,89,0.00,CLR,,0.00,WeatherDisplay:10.37,2013-01-09 11:14:00,
2013-01-09 06:19:00,21.2,18.5,30.28,WSW,248,0.0,0.0,89,0.00,CLR,,0.00,WeatherDisplay:10.37,2013-01-09 11:19:00,
2013-01-09 06:24:00,21.0,18.3,30.28,NNW,338,0.0,0.0,89,0.00,CLR,,0.00,WeatherDisplay:10.37,2013-01-09 11:24:00,
2013-01-09 06:29:00,20.7,18.0,30.29,SW,225,0.0,0.0,89,0.00,CLR,,0.00,WeatherDisplay:10.37,2013-01-09 11:29:00,
2013-01-09 06:34:00,20.7,18.0,30.29,WNW,292,0.0,0.0,89,0.00,CLR,,0.00,WeatherDisplay:10.37,2013-01-09 11:34:00,
2013-01-09 06:39:00,21.0,18.3,30.29,WNW,292,0.0,0.0,89,0.00,CLR,,0.00,WeatherDisplay:10.37,2013-01-09 11:39:00,
2013-01-09 06:44:00,20.8,18.1,30.29,NNW,338,0.0,0.0,89,0.00,CLR,,0.00,WeatherDisplay:10.37,2013-01-09 11:44:00,
2013-01-09 06:49:00,20.8,18.3,30.29,NNE,22,0.0,0.0,90,0.00,CLR,,0.00,WeatherDisplay:10.37,2013-01-09 11:49:00,
2013-01-09 06:54:00,20.7,18.2,30.30,NNW,338,0.0,0.0,90,0.00,CLR,,0.00,WeatherDisplay:10.37,2013-01-09 11:54:00,
2013-01-09 06:59:00,20.7,18.2,30.30,North,360,0.0,0.0,90,0.00,CLR,,0.00,WeatherDisplay:10.37,2013-01-09 11:59:00,
2013-01-09 07:04:00,20.7,18.2,30.29,NNW,338,0.0,0.0,90,0.00,CLR,,0.00,WeatherDisplay:10.37,2013-01-09 12:04:00,
2013-01-09 07:09:00,20.5,18.0,30.29,WNW,292,0.0,0.0,90,0.00,CLR,,0.00,WeatherDisplay:10.37,2013-01-09 12:09:00,
2013-01-09 07:15:00,20.5,18.0,30.30,WNW,292,0.0,0.0,90,0.00,CLR,,0.00,WeatherDisplay:10.37,2013-01-09 12:15:00,
2013-01-09 07:20:00,20.3,17.8,30.30,NNE,22,0.0,0.0,90,0.00,CLR,,0.00,WeatherDisplay:10.37,2013-01-09 12:20:00,
2013-01-09 07:25:00,20.1,17.6,30.30,SSE,158,0.0,0.0,90,0.00,CLR,,0.00,WeatherDisplay:10.37,2013-01-09 12:25:00,
2013-01-09 07:30:00,20.1,17.6,30.31,WNW,292,0.0,0.0,90,0.00,CLR,,0.00,WeatherDisplay:10.37,2013-01-09 12:30:00,
2013-01-09 07:35:00,20.5,18.0,30.31,West,270,0.0,0.0,90,0.00,CLR,,0.00,WeatherDisplay:10.37,2013-01-09 12:35:00,
2013-01-09 07:40:00,20.7,18.2,30.31,NNW,338,0.0,0.0,90,0.00,CLR,,0.00,WeatherDisplay:10.37,2013-01-09 12:40:00,
2013-01-09 07:45:00,20.7,18.2,30.31,NNE,22,0.0,0.0,90,0.00,CLR,,0.00,WeatherDisplay:10.37,2013-01-09 12:45:00,
2013-01-09 07:50:00,21.0,18.5,30.31,NNE,22,0.0,0.0,90,0.00,CLR,,0.00,WeatherDisplay:10.37,2013-01-09 12:50:00,
2013-01-09 07:55:00,22.1,19.6,30.31,NE,37,0.0,0.0,90,0.00,CLR,,0.00,WeatherDisplay:10.37,2013-01-09 12:55:00,
2013-01-09 08:00:00,22.5,19.5,30.31,NNW,338,0.0,0.0,88,0.00,CLR,,0.00,WeatherDisplay:10.37,2013-01-09 13:00:00,
2013-01-09 08:05:00,22.8,19.5,30.30,NNW,338,0.0,0.0,87,0.00,CLR,,0.00,WeatherDisplay:10.37,2013-01-09 13:05:00,
2013-01-09 08:10:00,23.4,19.6,30.30,NNE,22,0.0,0.0,85,0.00,CLR,,0.00,WeatherDisplay:10.37,2013-01-09 13:10:00,
2013-01-09 08:15:00,23.9,19.8,30.29,NNE,22,0.0,0.0,84,0.00,CLR,,0.00,WeatherDisplay:10.37,2013-01-09 13:15:00,
2013-01-09 08:20:00,24.1,20.0,30.29,East,90,0.0,0.0,84,0.00,CLR,,0.00,WeatherDisplay:10.37,2013-01-09 13:20:00,
2013-01-09 08:25:00,24.6,20.2,30.29,NE,45,0.0,0.0,83,0.00,CLR,,0.00,WeatherDisplay:10.37,2013-01-09 13:25:00,
2013-01-09 08:30:00,25.0,20.6,30.29,West,270,0.0,0.0,83,0.00,CLR,,0.00,WeatherDisplay:10.37,2013-01-09 13:30:00,
2013-01-09 08:35:00,25.2,20.5,30.29,NNE,22,0.0,0.0,82,0.00,CLR,,0.00,WeatherDisplay:10.37,2013-01-09 13:35:00,
2013-01-09 08:40:00,25.9,20.9,30.29,NNE,22,0.0,0.0,81,0.00,CLR,,0.00,WeatherDisplay:10.37,2013-01-09 13:40:00,
2013-01-09 08:45:00,26.1,20.8,30.29,West,270,0.0,0.0,80,0.00,CLR,,0.00,WeatherDisplay:10.37,2013-01-09 13:45:00,
2013-01-09 08:50:00,26.8,21.5,30.29,NW,315,0.0,0.0,80,0.00,CLR,,0.00,WeatherDisplay:10.37,2013-01-09 13:50:00,
2013-01-09 08:55:00,27.1,21.5,30.29,WNW,292,0.0,0.0,79,0.00,CLR,,0.00,WeatherDisplay:10.37,2013-01-09 13:55:00,
2013-01-09 09:00:00,27.7,21.7,30.29,NNE,22,0.0,0.0,78,0.00,CLR,,0.00,WeatherDisplay:10.37,2013-01-09 14:00:00,
2013-01-09 09:05:00,28.2,21.6,30.29,NNW,338,0.0,0.0,76,0.00,CLR,,0.00,WeatherDisplay:10.37,2013-01-09 14:05:00,
2013-01-09 09:10:00,28.4,21.8,30.29,West,270,0.0,0.0,76,0.00,CLR,,0.00,WeatherDisplay:10.37,2013-01-09 14:10:00,
2013-01-09 09:15:00,28.6,22.0,30.28,NW,315,0.0,0.0,76,0.00,CLR,,0.00,WeatherDisplay:10.37,2013-01-09 14:15:00,
2013-01-09 09:20:00,29.3,22.4,30.28,ESE,112,0.0,0.0,75,0.00,CLR,,0.00,WeatherDisplay:10.37,2013-01-09 14:20:00,
2013-01-09 09:25:00,29.7,22.4,30.28,NW,315,0.0,0.0,74,0.00,CLR,,0.00,WeatherDisplay:10.37,2013-01-09 14:25:00,
2013-01-09 09:30:00,30.0,22.7,30.28,WNW,292,0.0,0.0,74,0.00,CLR,,0.00,WeatherDisplay:10.37,2013-01-09 14:30:00,
2013-01-09 09:35:00,30.9,22.6,30.28,SW,225,0.0,0.0,71,0.00,CLR,,0.00,WeatherDisplay:10.37,2013-01-09 14:35:00,
2013-01-09 09:40:00,31.5,23.2,30.27,ENE,68,0.0,0.0,71,0.00,CLR,,0.00,WeatherDisplay:10.37,2013-01-09 14:40:00,
2013-01-09 09:45:00,31.6,22.9,30.27,NE,45,0.0,0.0,70,0.00,CLR,,0.00,WeatherDisplay:10.37,2013-01-09 14:45:00,
2013-01-09 09:50:00,32.0,22.3,30.27,NNW,338,0.0,0.0,67,0.00,CLR,,0.00,WeatherDisplay:10.37,2013-01-09 14:50:00,
2013-01-09 09:55:00,32.4,22.3,30.27,NE,45,0.0,0.0,66,0.00,CLR,,0.00,WeatherDisplay:10.37,2013-01-09 14:55:00,
2013-01-09 10:00:00,32.4,21.6,30.27,NNE,22,0.0,0.0,64,0.00,CLR,,0.00,WeatherDisplay:10.37,2013-01-09 15:00:00,
2013-01-09 10:05:00,32.7,21.5,30.26,WNW,292,0.0,0.0,63,0.00,CLR,,0.00,WeatherDisplay:10.37,2013-01-09 15:05:00,
2013-01-09 10:10:00,33.3,21.7,30.26,ENE,68,0.0,0.0,62,0.00,CLR,,0.00,WeatherDisplay:10.37,2013-01-09 15:10:00,
2013-01-09 10:15:00,33.4,21.4,30.25,NNE,22,0.0,0.0,61,0.00,CLR,,0.00,WeatherDisplay:10.37,2013-01-09 15:15:00,
2013-01-09 10:20:00,33.4,21.0,30.25,WNW,292,0.0,0.0,60,0.00,CLR,,0.00,WeatherDisplay:10.37,2013-01-09 15:20:00,
2013-01-09 10:25:00,33.6,21.2,30.25,NW,315,0.0,0.0,60,0.00,CLR,,0.00,WeatherDisplay:10.37,2013-01-09 15:25:00,
2013-01-09 10:30:00,34.0,21.2,30.25,NNW,338,0.0,0.0,59,0.00,CLR,,0.00,WeatherDisplay:10.37,2013-01-09 15:30:00,
2013-01-09 10:35:00,34.5,21.2,30.25,NE,45,0.0,0.0,58,0.00,CLR,,0.00,WeatherDisplay:10.37,2013-01-09 15:35:00,
2013-01-09 10:40:00,35.4,21.2,30.24,NW,315,0.0,0.0,56,0.00,CLR,,0.00,WeatherDisplay:10.37,2013-01-09 15:40:00,
2013-01-09 10:45:00,35.1,21.4,30.24,SSE,158,0.0,0.0,57,0.00,CLR,,0.00,WeatherDisplay:10.37,2013-01-09 15:45:00,
2013-01-09 10:50:00,35.8,22.5,30.24,SSE,158,0.0,0.0,58,0.00,CLR,,0.00,WeatherDisplay:10.37,2013-01-09 15:50:00,
2013-01-09 10:55:00,35.4,22.1,30.24,NE,45,2.3,2.3,58,0.00,CLR,,0.00,WeatherDisplay:10.37,2013-01-09 15:55:00,
2013-01-09 11:01:00,36.0,23.0,30.23,South,180,0.0,0.0,59,0.00,CLR,,0.00,WeatherDisplay:10.37,2013-01-09 16:01:00,
2013-01-09 11:06:00,37.4,23.5,30.23,West,270,0.0,0.0,57,0.00,CLR,,0.00,WeatherDisplay:10.37,2013-01-09 16:06:00,
2013-01-09 11:11:00,37.4,23.1,30.23,South,180,1.7,1.7,56,0.00,CLR,,0.00,WeatherDisplay:10.37,2013-01-09 16:11:00,
2013-01-09 11:16:00,37.6,22.4,30.22,NE,45,2.3,2.3,54,0.00,CLR,,0.00,WeatherDisplay:10.37,2013-01-09 16:16:00,
2013-01-09 11:21:00,37.9,22.7,30.22,South,180,0.0,0.0,54,0.00,CLR,,0.00,WeatherDisplay:10.37,2013-01-09 16:21:00,
2013-01-09 11:26:00,38.8,23.1,30.21,West,270,2.3,2.3,53,0.00,CLR,,0.00,WeatherDisplay:10.37,2013-01-09 16:26:00,
2013-01-09 11:31:00,38.3,22.6,30.21,South,180,2.7,2.7,53,0.00,CLR,,0.00,WeatherDisplay:10.37,2013-01-09 16:31:00,
2013-01-09 11:36:00,39.0,21.9,30.21,South,180,3.5,3.5,50,0.00,CLR,,0.00,WeatherDisplay:10.37,2013-01-09 16:36:00,
2013-01-09 11:41:00,38.5,22.8,30.18,ESE,112,2.7,2.7,53,0.00,CLR,,0.00,WeatherDisplay:10.37,2013-01-09 16:41:00,
2013-01-09 11:46:00,39.0,22.4,30.18,SE,135,2.7,2.7,51,0.00,CLR,,0.00,WeatherDisplay:10.37,2013-01-09 16:46:00,
2013-01-09 11:51:00,38.5,22.4,30.17,NE,45,2.3,0.0,52,0.00,CLR,,0.00,WeatherDisplay:10.37,2013-01-09 16:51:00,
2013-01-09 11:56:00,37.9,22.7,30.17,ESE,112,3.5,3.5,54,0.00,CLR,,0.00,WeatherDisplay:10.37,2013-01-09 16:56:00,
2013-01-09 12:01:00,38.5,22.4,30.15,SSE,158,3.5,3.5,52,0.00,CLR,,0.00,WeatherDisplay:10.37,2013-01-09 17:01:00,
2013-01-09 12:06:00,38.3,22.2,30.15,SSE,158,2.3,2.3,52,0.00,CLR,,0.00,WeatherDisplay:10.37,2013-01-09 17:06:00,
2013-01-09 12:11:00,38.8,21.7,30.15,SSE,158,2.3,2.3,50,0.00,CLR,,0.00,WeatherDisplay:10.37,2013-01-09 17:11:00,
2013-01-09 12:16:00,38.8,21.7,30.14,ESE,112,3.5,3.5,50,0.00,CLR,,0.00,WeatherDisplay:10.37,2013-01-09 17:16:00,
2013-01-09 12:21:00,38.8,21.3,30.14,SE,135,2.3,2.3,49,0.00,CLR,,0.00,WeatherDisplay:10.37,2013-01-09 17:21:00,
2013-01-09 12:26:00,39.2,21.6,30.12,South,180,2.7,2.7,49,0.00,CLR,,0.00,WeatherDisplay:10.37,2013-01-09 17:26:00,
2013-01-09 12:31:00,39.4,21.3,30.12,South,180,3.5,3.5,48,0.00,CLR,,0.00,WeatherDisplay:10.37,2013-01-09 17:31:00,
2013-01-09 12:36:00,39.2,21.6,30.12,South,180,2.3,2.3,49,0.00,CLR,,0.00,WeatherDisplay:10.37,2013-01-09 17:36:00,
2013-01-09 12:41:00,39.4,21.8,30.10,SSE,158,2.3,2.3,49,0.00,CLR,,0.00,WeatherDisplay:10.37,2013-01-09 17:41:00,
2013-01-09 12:46:00,39.7,21.6,30.10,WNW,292,1.1,1.1,48,0.00,CLR,,0.00,WeatherDisplay:10.37,2013-01-09 17:46:00,
2013-01-09 12:51:00,40.1,21.5,30.10,South,180,0.0,0.0,47,0.00,CLR,,0.00,WeatherDisplay:10.37,2013-01-09 17:51:00,
2013-01-09 12:56:00,40.1,21.5,30.10,ESE,112,1.7,1.7,47,0.00,CLR,,0.00,WeatherDisplay:10.37,2013-01-09 17:56:00,
2013-01-09 13:01:00,40.1,21.0,30.10,ESE,112,0.0,0.0,46,0.00,CLR,,0.00,WeatherDisplay:10.37,2013-01-09 18:01:00,
2013-01-09 13:06:00,40.3,21.6,30.09,SE,135,2.3,2.3,47,0.00,CLR,,0.00,WeatherDisplay:10.37,2013-01-09 18:06:00,
2013-01-09 13:11:00,40.5,21.3,30.09,South,180,2.3,2.5,46,0.00,CLR,,0.00,WeatherDisplay:10.37,2013-01-09 18:11:00,
2013-01-09 13:16:00,41.0,21.8,30.06,SSE,158,2.3,2.3,46,0.00,CLR,,0.00,WeatherDisplay:10.37,2013-01-09 18:16:00,
2013-01-09 13:21:00,42.3,21.4,30.06,South,180,2.3,2.3,43,0.00,CLR,,0.00,WeatherDisplay:10.37,2013-01-09 18:21:00,
2013-01-09 13:26:00,42.3,21.4,30.06,South,180,3.7,3.7,43,0.00,CLR,,0.00,WeatherDisplay:10.37,2013-01-09 18:26:00,
2013-01-09 13:31:00,43.0,21.4,30.06,SSE,158,2.3,2.3,42,0.00,CLR,,0.00,WeatherDisplay:10.37,2013-01-09 18:31:00,
2013-01-09 13:36:00,42.8,21.3,30.06,WNW,292,3.5,3.5,42,0.00,CLR,,0.00,WeatherDisplay:10.37,2013-01-09 18:36:00,
2013-01-09 13:41:00,42.4,20.9,30.09,SSE,158,4.6,4.6,42,0.00,CLR,,0.00,WeatherDisplay:10.37,2013-01-09 18:41:00,
2013-01-09 13:42:00,42.4,20.9,30.09,NE,45,4.6,4.6,42,0.00,CLR,,0.00,WeatherDisplay:10.37,2013-01-09 18:42:00,
2013-01-09 13:44:00,42.4,21.5,30.09,SSE,158,3.2,3.2,43,0.00,CLR,,0.00,WeatherDisplay:10.37,2013-01-09 18:44:00,
2013-01-09 13:45:00,42.4,21.5,30.09,South,180,2.0,5.0,43,0.00,CLR,,0.00,WeatherDisplay:10.37,2013-01-09 18:45:00,
2013-01-09 13:48:00,42.4,21.5,30.09,West,270,3.5,3.5,43,0.00,CLR,,0.00,WeatherDisplay:10.37,2013-01-09 18:48:00,
2013-01-09 13:49:00,42.6,21.6,30.09,West,270,3.5,3.5,43,0.00,CLR,,0.00,WeatherDisplay:10.37,2013-01-09 18:49:00,
2013-01-09 13:54:00,42.3,20.2,30.09,WSW,248,4.6,4.6,41,0.00,CLR,,0.00,WeatherDisplay:10.37,2013-01-09 18:54:00,
2013-01-09 13:59:00,42.1,21.2,30.09,South,180,3.5,3.5,43,0.00,CLR,,0.00,WeatherDisplay:10.37,2013-01-09 18:59:00,
2013-01-09 14:04:00,42.3,20.8,30.08,West,270,3.5,3.5,42,0.00,CLR,,0.00,WeatherDisplay:10.37,2013-01-09 19:04:00,
2013-01-09 14:09:00,41.4,21.1,30.08,ESE,112,4.6,4.6,44,0.00,CLR,,0.00,WeatherDisplay:10.37,2013-01-09 19:09:00,
2013-01-09 14:14:00,41.4,21.6,30.07,South,180,4.6,4.6,45,0.00,CLR,,0.00,WeatherDisplay:10.37,2013-01-09 19:14:00,
2013-01-09 14:19:00,41.4,22.1,30.07,South,180,2.2,2.2,46,0.00,CLR,,0.00,WeatherDisplay:10.37,2013-01-09 19:19:00,
2013-01-09 14:24:00,41.0,21.8,30.07,SE,135,3.5,3.5,46,0.00,CLR,,0.00,WeatherDisplay:10.37,2013-01-09 19:24:00,
2013-01-09 14:29:00,41.2,22.0,30.06,ESE,112,3.5,3.5,46,0.00,CLR,,0.00,WeatherDisplay:10.37,2013-01-09 19:29:00,
2013-01-09 14:34:00,41.2,22.5,30.06,South,180,4.6,4.6,47,0.00,CLR,,0.00,WeatherDisplay:10.37,2013-01-09 19:34:00,
2013-01-09 14:39:00,41.0,22.3,30.06,South,180,0.0,0.0,47,0.00,CLR,,0.00,WeatherDisplay:10.37,2013-01-09 19:39:00,
2013-01-09 14:44:00,40.8,22.6,30.06,ENE,68,3.5,3.5,48,0.00,CLR,,0.00,WeatherDisplay:10.37,2013-01-09 19:44:00,
2013-01-09 14:49:00,40.8,22.6,30.03,WSW,248,2.3,2.3,48,0.00,CLR,,0.00,WeatherDisplay:10.37,2013-01-09 19:49:00,
2013-01-09 14:54:00,40.6,22.9,30.03,South,180,0.0,0.0,49,0.00,CLR,,0.00,WeatherDisplay:10.37,2013-01-09 19:54:00,
2013-01-09 14:59:00,40.5,23.3,30.03,WSW,248,0.0,0.0,50,0.00,CLR,,0.00,WeatherDisplay:10.37,2013-01-09 19:59:00,
2013-01-09 15:04:00,40.5,23.3,30.03,NE,45,0.0,0.0,50,0.00,CLR,,0.00,WeatherDisplay:10.37,2013-01-09 20:04:00,
2013-01-09 15:09:00,40.3,23.1,30.03,ESE,112,0.0,0.0,50,0.00,CLR,,0.00,WeatherDisplay:10.37,2013-01-09 20:09:00,
2013-01-09 15:14:00,39.9,23.2,30.02,SE,135,0.0,0.0,51,0.00,CLR,,0.00,WeatherDisplay:10.37,2013-01-09 20:14:00,
2013-01-09 15:19:00,39.6,23.9,30.02,ESE,112,0.0,0.0,53,0.00,CLR,,0.00,WeatherDisplay:10.37,2013-01-09 20:19:00,
2013-01-09 15:24:00,39.6,23.4,30.02,East,90,0.0,0.0,52,0.00,CLR,,0.00,WeatherDisplay:10.37,2013-01-09 20:24:00,
2013-01-09 15:29:00,39.6,23.4,30.02,SW,225,0.0,0.0,52,0.00,CLR,,0.00,WeatherDisplay:10.37,2013-01-09 20:29:00,
2013-01-09 15:34:00,39.6,23.4,30.02,SSE,158,0.0,0.0,52,0.00,CLR,,0.00,WeatherDisplay:10.37,2013-01-09 20:34:00,
2013-01-09 15:39:00,39.6,23.4,30.01,West,270,2.3,2.3,52,0.00,CLR,,0.00,WeatherDisplay:10.37,2013-01-09 20:39:00,
2013-01-09 15:44:00,39.6,23.9,30.01,South,180,0.0,0.0,53,0.00,CLR,,0.00,WeatherDisplay:10.37,2013-01-09 20:44:00,
2013-01-09 15:49:00,39.4,23.7,30.01,South,180,2.3,2.3,53,0.00,CLR,,0.00,WeatherDisplay:10.37,2013-01-09 20:49:00,
2013-01-09 15:54:00,39.4,23.7,30.00,SE,135,3.5,3.5,53,0.00,CLR,,0.00,WeatherDisplay:10.37,2013-01-09 20:54:00,
2013-01-09 15:59:00,39.2,24.8,30.00,ESE,112,4.2,4.2,56,0.00,CLR,,0.00,WeatherDisplay:10.37,2013-01-09 20:59:00,
2013-01-09 16:04:00,39.2,24.8,29.97,ESE,112,4.2,4.2,56,0.00,CLR,,0.00,WeatherDisplay:10.37,2013-01-09 21:04:00,
2013-01-09 16:09:00,39.6,25.2,29.97,WSW,248,2.3,2.3,56,0.00,CLR,,0.00,WeatherDisplay:10.37,2013-01-09 21:09:00,
2013-01-09 16:14:00,39.4,25.4,29.94,South,180,5.8,5.8,57,0.00,CLR,,0.00,WeatherDisplay:10.37,2013-01-09 21:14:00,
2013-01-09 16:19:00,39.6,25.6,29.94,ESE,112,5.8,5.8,57,0.00,CLR,,0.00,WeatherDisplay:10.37,2013-01-09 21:19:00,
2013-01-09 16:24:00,39.4,25.8,29.91,SE,135,5.3,5.3,58,0.00,CLR,,0.00,WeatherDisplay:10.37,2013-01-09 21:24:00,
2013-01-09 16:29:00,39.4,25.8,29.91,WNW,292,3.5,3.5,58,0.00,CLR,,0.00,WeatherDisplay:10.37,2013-01-09 21:29:00,
2013-01-09 16:34:00,39.4,26.2,29.91,West,270,2.2,2.2,59,0.00,CLR,,0.00,WeatherDisplay:10.37,2013-01-09 21:34:00,
2013-01-09 16:39:00,39.2,26.1,29.93,West,270,3.2,3.2,59,0.00,CLR,,0.00,WeatherDisplay:10.37,2013-01-09 21:39:00,
2013-01-09 16:44:00,39.2,26.1,29.93,South,180,0.0,0.0,59,0.00,CLR,,0.00,WeatherDisplay:10.37,2013-01-09 21:44:00,
2013-01-09 16:49:00,38.5,26.6,29.93,South,180,2.7,2.7,62,0.00,CLR,,0.00,WeatherDisplay:10.37,2013-01-09 21:49:00,
2013-01-09 16:54:00,38.7,26.4,29.93,West,270,0.0,0.0,61,0.00,CLR,,0.00,WeatherDisplay:10.37,2013-01-09 21:54:00,
2013-01-09 16:59:00,38.7,26.0,29.93,SSE,158,2.2,2.2,60,0.00,CLR,,0.00,WeatherDisplay:10.37,2013-01-09 21:59:00,
2013-01-09 17:04:00,38.8,26.1,29.91,West,270,2.2,2.2,60,0.00,CLR,,0.00,WeatherDisplay:10.37,2013-01-09 22:04:00,
2013-01-09 17:09:00,38.8,26.1,29.91,WNW,292,0.0,0.0,60,0.00,CLR,,0.00,WeatherDisplay:10.37,2013-01-09 22:09:00,
2013-01-09 17:14:00,38.8,26.1,29.92,ENE,68,0.0,0.0,60,0.00,CLR,,0.00,WeatherDisplay:10.37,2013-01-09 22:14:00,
2013-01-09 17:19:00,38.8,26.5,29.92,ESE,112,0.0,0.0,61,0.00,CLR,,0.00,WeatherDisplay:10.37,2013-01-09 22:19:00,
2013-01-09 17:24:00,38.5,26.6,29.92,SE,135,0.0,0.0,62,0.00,CLR,,0.00,WeatherDisplay:10.37,2013-01-09 22:24:00,
2013-01-09 17:29:00,38.3,26.4,29.91,WNW,292,0.0,0.0,62,0.00,CLR,,0.00,WeatherDisplay:10.37,2013-01-09 22:29:00,
2013-01-09 17:34:00,38.3,26.4,29.91,ESE,112,3.5,3.5,62,0.00,CLR,,0.00,WeatherDisplay:10.37,2013-01-09 22:34:00,
2013-01-09 17:39:00,38.3,26.4,29.89,WNW,292,0.0,0.0,62,0.00,CLR,,0.00,WeatherDisplay:10.37,2013-01-09 22:39:00,
2013-01-09 17:44:00,38.5,26.6,29.89,West,270,0.0,0.0,62,0.00,CLR,,0.00,WeatherDisplay:10.37,2013-01-09 22:44:00,
2013-01-09 17:49:00,38.5,26.6,29.89,ESE,112,0.0,0.0,62,0.00,CLR,,0.00,WeatherDisplay:10.37,2013-01-09 22:49:00,
2013-01-09 17:54:00,38.3,26.4,29.89,West,270,0.0,0.0,62,0.00,CLR,,0.00,WeatherDisplay:10.37,2013-01-09 22:54:00,
2013-01-09 17:59:00,38.8,26.9,29.89,SSE,158,3.2,3.2,62,0.00,CLR,,0.00,WeatherDisplay:10.37,2013-01-09 22:59:00,
2013-01-09 18:04:00,38.8,27.3,29.88,SSE,158,5.8,5.8,63,0.00,CLR,,0.00,WeatherDisplay:10.37,2013-01-09 23:04:00,
2013-01-09 18:09:00,39.0,27.1,29.88,West,270,4.7,4.7,62,0.00,CLR,,0.00,WeatherDisplay:10.37,2013-01-09 23:09:00,
2013-01-09 18:14:00,39.7,27.7,29.88,South,180,4.7,4.7,62,0.00,CLR,,0.00,WeatherDisplay:10.37,2013-01-09 23:14:00,
2013-01-09 18:19:00,39.7,27.7,29.88,South,180,4.6,4.6,62,0.00,CLR,,0.00,WeatherDisplay:10.37,2013-01-09 23:19:00,
2013-01-09 18:24:00,40.3,28.3,29.88,NW,315,4.6,4.6,62,0.00,CLR,,0.00,WeatherDisplay:10.37,2013-01-09 23:24:00,
2013-01-09 18:29:00,40.3,28.3,29.89,WSW,248,6.9,6.9,62,0.00,CLR,,0.00,WeatherDisplay:10.37,2013-01-09 23:29:00,
2013-01-09 18:35:00,40.1,28.1,29.89,West,270,5.3,5.3,62,0.00,CLR,,0.00,WeatherDisplay:10.37,2013-01-09 23:35:00,
2013-01-09 18:40:00,40.5,28.5,29.88,WNW,292,5.8,5.8,62,0.00,CLR,,0.00,WeatherDisplay:10.37,2013-01-09 23:40:00,
2013-01-09 18:45:00,40.5,28.9,29.88,South,180,3.5,3.5,63,0.00,CLR,,0.00,WeatherDisplay:10.37,2013-01-09 23:45:00,
2013-01-09 18:50:00,40.6,29.0,29.89,SSE,158,4.6,4.6,63,0.00,CLR,,0.00,WeatherDisplay:10.37,2013-01-09 23:50:00,
2013-01-09 18:55:00,40.6,29.4,29.89,West,270,4.2,6.0,64,0.00,CLR,,0.00,WeatherDisplay:10.37,2013-01-09 23:55:00,
2013-01-09 19:00:00,40.6,29.4,29.89,South,184,5.0,7.0,64,0.00,CLR,,0.00,WeatherDisplay:10.37,2013-01-10 00:00:00,
2013-01-09 19:05:00,40.8,29.6,29.88,WNW,292,8.3,8.3,64,0.00,CLR,,0.00,WeatherDisplay:10.37,2013-01-10 00:05:00,
2013-01-09 19:10:00,40.8,29.6,29.88,WSW,252,5.0,8.0,64,0.00,CLR,,0.00,WeatherDisplay:10.37,2013-01-10 00:10:00,
2013-01-09 19:15:00,40.8,29.9,29.88,WNW,292,6.8,6.8,65,0.00,CLR,,0.00,WeatherDisplay:10.37,2013-01-10 00:15:00,
2013-01-09 19:20:00,40.8,29.9,29.88,West,259,3.0,9.0,65,0.00,CLR,,0.00,WeatherDisplay:10.37,2013-01-10 00:20:00,
2013-01-09 19:25:00,40.6,30.1,29.88,West,270,5.8,5.8,66,0.00,CLR,,0.00,WeatherDisplay:10.37,2013-01-10 00:25:00,
2013-01-09 19:30:00,40.3,29.8,29.88,WSW,240,2.0,6.0,66,0.00,CLR,,0.00,WeatherDisplay:10.37,2013-01-10 00:30:00,
2013-01-09 19:35:00,40.3,30.2,29.88,WSW,248,4.7,4.7,67,0.00,CLR,,0.00,WeatherDisplay:10.37,2013-01-10 00:35:00,
2013-01-09 19:40:00,40.1,30.0,29.87,West,270,3.0,5.0,67,0.00,CLR,,0.00,WeatherDisplay:10.37,2013-01-10 00:40:00,
2013-01-09 19:45:00,40.3,30.2,29.87,West,264,3.0,6.0,67,0.00,CLR,,0.00,WeatherDisplay:10.37,2013-01-10 00:45:00,
2013-01-09 19:50:00,40.3,30.2,29.87,West,270,3.7,3.7,67,0.00,CLR,,0.00,WeatherDisplay:10.37,2013-01-10 00:50:00,
2013-01-09 19:55:00,40.3,30.6,29.87,SW,225,9.4,9.4,68,0.00,CLR,,0.00,WeatherDisplay:10.37,2013-01-10 00:55:00,
2013-01-09 20:00:00,40.3,30.6,29.87,West,270,5.8,5.8,68,0.00,CLR,,0.00,WeatherDisplay:10.37,2013-01-10 01:00:00,
2013-01-09 20:05:00,40.3,30.6,29.87,WNW,292,8.1,8.1,68,0.00,CLR,,0.00,WeatherDisplay:10.37,2013-01-10 01:05:00,
2013-01-09 20:10:00,40.3,30.6,29.87,West,270,5.8,5.8,68,0.00,CLR,,0.00,WeatherDisplay:10.37,2013-01-10 01:10:00,
2013-01-09 20:15:00,40.3,30.6,29.87,NNW,338,5.8,5.8,68,0.00,CLR,,0.00,WeatherDisplay:10.37,2013-01-10 01:15:00,
2013-01-09 20:20:00,39.9,30.5,29.87,South,180,8.1,8.1,69,0.00,CLR,,0.00,WeatherDisplay:10.37,2013-01-10 01:20:00,
2013-01-09 20:25:00,40.1,30.7,29.87,WSW,248,4.6,4.6,69,0.00,CLR,,0.00,WeatherDisplay:10.37,2013-01-10 01:25:00,
2013-01-09 20:30:00,40.1,30.7,29.86,SSE,158,10.4,10.4,69,0.00,CLR,,0.00,WeatherDisplay:10.37,2013-01-10 01:30:00,
2013-01-09 20:35:00,40.1,30.7,29.86,South,180,3.7,3.7,69,0.00,CLR,,0.00,WeatherDisplay:10.37,2013-01-10 01:35:00,
2013-01-09 20:40:00,39.9,30.5,29.86,SSE,158,3.5,3.5,69,0.00,CLR,,0.00,WeatherDisplay:10.37,2013-01-10 01:40:00,
2013-01-09 20:45:00,39.9,30.5,29.86,NE,45,5.8,5.8,69,0.00,CLR,,0.00,WeatherDisplay:10.37,2013-01-10 01:45:00,
2013-01-09 20:50:00,39.9,30.5,29.87,WNW,292,6.9,6.9,69,0.00,CLR,,0.00,WeatherDisplay:10.37,2013-01-10 01:50:00,
2013-01-09 20:55:00,39.7,30.4,29.87,WSW,248,5.8,5.8,69,0.00,CLR,,0.00,WeatherDisplay:10.37,2013-01-10 01:55:00,
2013-01-09 21:00:00,39.7,30.7,29.87,West,270,5.8,5.8,70,0.00,CLR,,0.00,WeatherDisplay:10.37,2013-01-10 02:00:00,
2013-01-09 21:05:00,39.6,30.6,29.88,West,270,4.2,4.2,70,0.00,CLR,,0.00,WeatherDisplay:10.37,2013-01-10 02:05:00,
2013-01-09 21:10:00,39.6,30.6,29.88,West,270,2.3,2.3,70,0.00,CLR,,0.00,WeatherDisplay:10.37,2013-01-10 02:10:00,
2013-01-09 21:15:00,39.6,30.6,29.87,West,270,5.8,5.8,70,0.00,CLR,,0.00,WeatherDisplay:10.37,2013-01-10 02:15:00,
2013-01-09 21:20:00,39.7,30.7,29.87,NNW,338,2.3,2.5,70,0.00,CLR,,0.00,WeatherDisplay:10.37,2013-01-10 02:20:00,
2013-01-09 21:25:00,39.6,30.6,29.87,West,270,3.7,3.7,70,0.00,CLR,,0.00,WeatherDisplay:10.37,2013-01-10 02:25:00,
2013-01-09 21:30:00,39.6,30.6,29.87,West,270,2.7,2.7,70,0.00,CLR,,0.00,WeatherDisplay:10.37,2013-01-10 02:30:00,
2013-01-09 21:35:00,40.3,30.6,29.87,West,270,4.6,4.6,68,0.00,CLR,,0.00,WeatherDisplay:10.37,2013-01-10 02:35:00,
2013-01-09 21:40:00,40.5,30.8,29.88,West,270,9.2,9.2,68,0.00,CLR,,0.00,WeatherDisplay:10.37,2013-01-10 02:40:00,
2013-01-09 21:45:00,40.6,30.5,29.88,West,270,4.7,4.7,67,0.00,CLR,,0.00,WeatherDisplay:10.37,2013-01-10 02:45:00,
2013-01-09 21:50:00,40.8,30.7,29.87,West,270,5.8,5.8,67,0.00,CLR,,0.00,WeatherDisplay:10.37,2013-01-10 02:50:00,
2013-01-09 21:55:00,41.0,30.5,29.87,West,270,8.3,8.3,66,0.00,CLR,,0.00,WeatherDisplay:10.37,2013-01-10 02:55:00,
2013-01-09 22:00:00,41.4,30.5,29.87,ENE,68,8.1,8.1,65,0.00,CLR,,0.00,WeatherDisplay:10.37,2013-01-10 03:00:00,
2013-01-09 22:05:00,41.5,30.2,29.87,NW,315,6.9,6.9,64,0.00,CLR,,0.00,WeatherDisplay:10.37,2013-01-10 03:05:00,
2013-01-09 22:10:00,41.5,30.2,29.87,WNW,292,5.8,5.8,64,0.00,CLR,,0.00,WeatherDisplay:10.37,2013-01-10 03:10:00,
2013-01-09 22:15:00,41.2,29.9,29.88,WNW,292,5.8,5.8,64,0.00,CLR,,0.00,WeatherDisplay:10.37,2013-01-10 03:15:00,
2013-01-09 22:20:00,41.5,29.8,29.88,West,270,5.8,5.8,63,0.00,CLR,,0.00,WeatherDisplay:10.37,2013-01-10 03:20:00,
2013-01-09 22:25:00,41.2,29.5,29.88,South,180,4.6,4.6,63,0.00,CLR,,0.00,WeatherDisplay:10.37,2013-01-10 03:25:00,
2013-01-09 22:30:00,41.4,29.7,29.89,West,270,7.8,7.8,63,0.00,CLR,,0.00,WeatherDisplay:10.37,2013-01-10 03:30:00,
2013-01-09 22:35:00,41.5,29.4,29.89,WNW,292,5.8,5.8,62,0.00,CLR,,0.00,WeatherDisplay:10.37,2013-01-10 03:35:00,
2013-01-09 22:40:00,41.5,29.4,29.89,WNW,292,5.8,5.8,62,0.00,CLR,,0.00,WeatherDisplay:10.37,2013-01-10 03:40:00,
2013-01-09 22:45:00,41.5,29.4,29.89,WSW,248,6.8,6.8,62,0.00,CLR,,0.00,WeatherDisplay:10.37,2013-01-10 03:45:00,
2013-01-09 22:50:00,41.7,29.6,29.89,West,270,9.2,9.2,62,0.00,CLR,,0.00,WeatherDisplay:10.37,2013-01-10 03:50:00,
2013-01-09 22:55:00,41.5,29.4,29.89,SSE,158,4.7,4.7,62,0.00,CLR,,0.00,WeatherDisplay:10.37,2013-01-10 03:55:00,
2013-01-09 23:00:00,41.5,29.4,29.89,West,270,4.7,4.7,62,0.00,CLR,,0.00,WeatherDisplay:10.37,2013-01-10 04:00:00,
2013-01-09 23:05:00,41.4,29.3,29.89,South,180,4.7,4.7,62,0.00,CLR,,0.00,WeatherDisplay:10.37,2013-01-10 04:05:00,
2013-01-09 23:10:00,41.4,28.9,29.89,WNW,292,6.9,6.9,61,0.00,CLR,,0.00,WeatherDisplay:10.37,2013-01-10 04:10:00,
2013-01-09 23:15:00,41.7,28.4,29.88,West,270,4.6,4.6,59,0.00,CLR,,0.00,WeatherDisplay:10.37,2013-01-10 04:15:00,
2013-01-09 23:20:00,41.9,27.8,29.88,South,180,8.1,8.1,57,0.00,CLR,,0.00,WeatherDisplay:10.37,2013-01-10 04:20:00,
2013-01-09 23:25:00,42.1,27.1,29.88,West,270,6.9,6.9,55,0.00,CLR,,0.00,WeatherDisplay:10.37,2013-01-10 04:25:00,
2013-01-09 23:30:00,42.4,26.0,29.88,SSE,158,6.8,6.8,52,0.00,CLR,,0.00,WeatherDisplay:10.37,2013-01-10 04:30:00,
2013-01-09 23:35:00,43.0,25.6,29.88,NW,315,8.1,8.1,50,0.00,CLR,,0.00,WeatherDisplay:10.37,2013-01-10 04:35:00,
2013-01-09 23:40:00,42.8,25.4,29.89,South,180,4.6,4.6,50,0.00,CLR,,0.00,WeatherDisplay:10.37,2013-01-10 04:40:00,
2013-01-09 23:45:00,42.8,24.4,29.89,South,180,9.2,9.2,48,0.00,CLR,,0.00,WeatherDisplay:10.37,2013-01-10 04:45:00,
2013-01-09 23:50:00,42.4,24.1,29.88,WSW,248,4.6,4.6,48,0.00,CLR,,0.00,WeatherDisplay:10.37,2013-01-10 04:50:00,
2013-01-09 23:55:00,42.4,24.1,29.88,NW,315,5.8,5.8,48,0.00,CLR,,0.00,WeatherDisplay:10.37,2013-01-10 04:55:00,